sensor_id;sensor_type;location;lat;lon;timestamp;pressure;altitude;pressure_sealevel;temperature;humidity
77639;BME280;66802;52.574;14.398;2024-03-02T00:00:22;100697.41;;;7.05;100.00
77639;BME280;66802;52.574;14.398;2024-03-02T00:02:50;100697.94;;;6.99;100.00
77639;BME280;66802;52.574;14.398;2024-03-02T00:05:18;100699.03;;;6.96;100.00
77639;BME280;66802;52.574;14.398;2024-03-02T00:07:52;100698.44;;;6.93;100.00
77639;BME280;66802;52.574;14.398;2024-03-02T00:10:20;100685.31;;;6.90;100.00
77639;BME280;66802;52.574;14.398;2024-03-02T00:12:48;100683.63;;;6.89;100.00
77639;BME280;66802;52.574;14.398;2024-03-02T00:18:12;100687.28;;;6.88;100.00
77639;BME280;66802;52.574;14.398;2024-03-02T00:20:38;100687.28;;;6.88;100.00
77639;BME280;66802;52.574;14.398;2024-03-02T00:23:06;100682.88;;;6.87;100.00
77639;BME280;66802;52.574;14.398;2024-03-02T00:25:44;100689.84;;;6.89;100.00
77639;BME280;66802;52.574;14.398;2024-03-02T00:28:21;100695.94;;;6.91;100.00
77639;BME280;66802;52.574;14.398;2024-03-02T00:31:01;100698.78;;;7.00;100.00
77639;BME280;66802;52.574;14.398;2024-03-02T00:33:31;100704.38;;;7.17;100.00
77639;BME280;66802;52.574;14.398;2024-03-02T00:35:58;100709.81;;;7.27;100.00
77639;BME280;66802;52.574;14.398;2024-03-02T00:38:25;100704.44;;;7.27;100.00
77639;BME280;66802;52.574;14.398;2024-03-02T00:40:51;100700.38;;;7.32;100.00
77639;BME280;66802;52.574;14.398;2024-03-02T00:43:41;100698.22;;;7.26;100.00
77639;BME280;66802;52.574;14.398;2024-03-02T00:46:08;100703.88;;;7.23;100.00
77639;BME280;66802;52.574;14.398;2024-03-02T00:48:33;100706.00;;;7.29;100.00
77639;BME280;66802;52.574;14.398;2024-03-02T00:51:05;100711.13;;;7.32;100.00
77639;BME280;66802;52.574;14.398;2024-03-02T00:53:31;100710.44;;;7.40;100.00
77639;BME280;66802;52.574;14.398;2024-03-02T00:55:58;100711.59;;;7.47;100.00
77639;BME280;66802;52.574;14.398;2024-03-02T00:58:25;100706.94;;;7.49;100.00
77639;BME280;66802;52.574;14.398;2024-03-02T04:02:05;100657.88;;;8.74;100.00
77639;BME280;66802;52.574;14.398;2024-03-02T04:04:31;100660.09;;;8.78;100.00
77639;BME280;66802;52.574;14.398;2024-03-02T04:06:56;100657.13;;;8.82;100.00
77639;BME280;66802;52.574;14.398;2024-03-02T04:09:21;100647.22;;;8.82;100.00
77639;BME280;66802;52.574;14.398;2024-03-02T04:11:47;100648.03;;;8.92;100.00
77639;BME280;66802;52.574;14.398;2024-03-02T04:14:12;100646.75;;;8.96;100.00
77639;BME280;66802;52.574;14.398;2024-03-02T04:16:38;100656.69;;;8.96;100.00
77639;BME280;66802;52.574;14.398;2024-03-02T04:19:04;100657.38;;;8.88;100.00
77639;BME280;66802;52.574;14.398;2024-03-02T04:21:29;100661.06;;;8.87;100.00
77639;BME280;66802;52.574;14.398;2024-03-02T04:23:55;100658.22;;;8.89;100.00
77639;BME280;66802;52.574;14.398;2024-03-02T04:26:24;100659.94;;;8.90;100.00
77639;BME280;66802;52.574;14.398;2024-03-02T04:28:58;100662.38;;;8.83;100.00
77639;BME280;66802;52.574;14.398;2024-03-02T04:31:23;100657.38;;;8.88;100.00
77639;BME280;66802;52.574;14.398;2024-03-02T04:33:48;100659.50;;;8.94;100.00
77639;BME280;66802;52.574;14.398;2024-03-02T04:36:14;100662.06;;;8.96;100.00
77639;BME280;66802;52.574;14.398;2024-03-02T04:38:39;100665.03;;;8.93;100.00
77639;BME280;66802;52.574;14.398;2024-03-02T04:41:06;100673.50;;;8.98;100.00
77639;BME280;66802;52.574;14.398;2024-03-02T04:43:31;100668.97;;;8.98;100.00
77639;BME280;66802;52.574;14.398;2024-03-02T04:45:58;100671.09;;;9.04;100.00
77639;BME280;66802;52.574;14.398;2024-03-02T04:48:24;100670.28;;;8.94;100.00
77639;BME280;66802;52.574;14.398;2024-03-02T04:50:49;100674.81;;;8.94;100.00
77639;BME280;66802;52.574;14.398;2024-03-02T04:53:15;100676.19;;;8.98;100.00
77639;BME280;66802;52.574;14.398;2024-03-02T04:55:40;100675.22;;;8.89;100.00
77639;BME280;66802;52.574;14.398;2024-03-02T04:58:06;100671.84;;;8.87;100.00
77639;BME280;66802;52.574;14.398;2024-03-02T05:00:32;100683.31;;;8.89;100.00
77639;BME280;66802;52.574;14.398;2024-03-02T05:02:58;100682.03;;;8.93;100.00
77639;BME280;66802;52.574;14.398;2024-03-02T05:05:23;100674.09;;;8.92;100.00
77639;BME280;66802;52.574;14.398;2024-03-02T05:07:48;100678.88;;;8.98;100.00
77639;BME280;66802;52.574;14.398;2024-03-02T05:10:17;100681.75;;;8.96;100.00
77639;BME280;66802;52.574;14.398;2024-03-02T05:12:43;100678.06;;;8.88;100.00
77639;BME280;66802;52.574;14.398;2024-03-02T05:15:13;100685.88;;;8.91;100.00
77639;BME280;66802;52.574;14.398;2024-03-02T05:17:40;100680.19;;;8.94;100.00
77639;BME280;66802;52.574;14.398;2024-03-02T05:20:09;100685.97;;;8.99;100.00
77639;BME280;66802;52.574;14.398;2024-03-02T05:22:37;100688.84;;;8.97;100.00
77639;BME280;66802;52.574;14.398;2024-03-02T05:25:04;100677.91;;;8.99;100.00
77639;BME280;66802;52.574;14.398;2024-03-02T05:27:30;100684.69;;;9.03;100.00
77639;BME280;66802;52.574;14.398;2024-03-02T05:29:56;100690.38;;;9.00;100.00
77639;BME280;66802;52.574;14.398;2024-03-02T05:32:21;100691.69;;;8.96;100.00
77639;BME280;66802;52.574;14.398;2024-03-02T05:34:47;100690.38;;;9.00;100.00
77639;BME280;66802;52.574;14.398;2024-03-02T05:37:12;100698.19;;;8.93;100.00
77639;BME280;66802;52.574;14.398;2024-03-02T05:39:38;100697.91;;;8.96;100.00
77639;BME280;66802;52.574;14.398;2024-03-02T05:42:04;100695.03;;;8.98;100.00
77639;BME280;66802;52.574;14.398;2024-03-02T05:44:29;100688.00;;;8.97;100.00
77639;BME280;66802;52.574;14.398;2024-03-02T05:46:55;100693.03;;;9.09;100.00
77639;BME280;66802;52.574;14.398;2024-03-02T05:49:21;100701.28;;;8.98;100.00
77639;BME280;66802;52.574;14.398;2024-03-02T05:51:46;100704.16;;;8.97;100.00
77639;BME280;66802;52.574;14.398;2024-03-02T05:54:12;100712.22;;;8.97;100.00
77639;BME280;66802;52.574;14.398;2024-03-02T05:56:37;100706.66;;;8.98;100.00
77639;BME280;66802;52.574;14.398;2024-03-02T05:59:05;100718.28;;;8.99;100.00
77639;BME280;66802;52.574;14.398;2024-03-02T06:01:47;100716.91;;;8.95;100.00
77639;BME280;66802;52.574;14.398;2024-03-02T06:04:16;100717.19;;;8.92;100.00
77639;BME280;66802;52.574;14.398;2024-03-02T06:06:42;100709.09;;;8.92;100.00
77639;BME280;66802;52.574;14.398;2024-03-02T06:09:07;100725.25;;;8.92;100.00
77639;BME280;66802;52.574;14.398;2024-03-02T06:11:40;100709.53;;;8.87;100.00
77639;BME280;66802;52.574;14.398;2024-03-02T06:14:09;100726.53;;;8.88;100.00
77639;BME280;66802;52.574;14.398;2024-03-02T06:16:35;100729.66;;;8.93;100.00
77639;BME280;66802;52.574;14.398;2024-03-02T06:19:00;100728.06;;;9.00;100.00
77639;BME280;66802;52.574;14.398;2024-03-02T06:21:27;100728.78;;;8.92;100.00
77639;BME280;66802;52.574;14.398;2024-03-02T06:23:53;100731.91;;;8.88;100.00
77639;BME280;66802;52.574;14.398;2024-03-02T06:26:19;100731.91;;;8.88;100.00
77639;BME280;66802;52.574;14.398;2024-03-02T06:28:50;100734.31;;;8.91;100.00
77639;BME280;66802;52.574;14.398;2024-03-02T06:31:18;100734.03;;;8.94;100.00
77639;BME280;66802;52.574;14.398;2024-03-02T06:33:43;100737.00;;;8.91;100.00
77639;BME280;66802;52.574;14.398;2024-03-02T06:36:09;100736.03;;;8.92;100.00
77639;BME280;66802;52.574;14.398;2024-03-02T06:38:34;100740.81;;;8.98;100.00
77639;BME280;66802;52.574;14.398;2024-03-02T06:41:03;100743.50;;;8.98;100.00
77639;BME280;66802;52.574;14.398;2024-03-02T06:43:31;100741.25;;;8.93;100.00
77639;BME280;66802;52.574;14.398;2024-03-02T06:45:56;100748.78;;;8.90;100.00
77639;BME280;66802;52.574;14.398;2024-03-02T06:48:22;100753.28;;;8.99;100.00
77639;BME280;66802;52.574;14.398;2024-03-02T06:50:49;100754.72;;;9.03;100.00
77639;BME280;66802;52.574;14.398;2024-03-02T06:53:17;100754.00;;;9.01;100.00
77639;BME280;66802;52.574;14.398;2024-03-02T06:55:46;100750.75;;;8.88;100.00
77639;BME280;66802;52.574;14.398;2024-03-02T06:58:13;100763.38;;;8.97;100.00
77639;BME280;66802;52.574;14.398;2024-03-02T07:00:40;100765.47;;;9.03;100.00
77639;BME280;66802;52.574;14.398;2024-03-02T07:03:06;100764.38;;;8.96;100.00
77639;BME280;66802;52.574;14.398;2024-03-02T07:05:31;100768.91;;;8.95;100.00
77639;BME280;66802;52.574;14.398;2024-03-02T07:07:57;100765.34;;;8.95;100.00
77639;BME280;66802;52.574;14.398;2024-03-02T07:10:22;100772.56;;;9.04;100.00
77639;BME280;66802;52.574;14.398;2024-03-02T07:12:48;100776.97;;;9.05;100.00
77639;BME280;66802;52.574;14.398;2024-03-02T07:15:13;100780.22;;;9.08;100.00
77639;BME280;66802;52.574;14.398;2024-03-02T07:18:08;100782.63;;;9.02;100.00
77639;BME280;66802;52.574;14.398;2024-03-02T07:20:33;100782.91;;;8.99;100.00
77639;BME280;66802;52.574;14.398;2024-03-02T07:22:59;100784.59;;;9.00;100.00
77639;BME280;66802;52.574;14.398;2024-03-02T07:25:24;100785.31;;;9.02;100.00
77639;BME280;66802;52.574;14.398;2024-03-02T07:27:50;100788.00;;;9.02;100.00
77639;BME280;66802;52.574;14.398;2024-03-02T07:30:16;100789.72;;;9.03;100.00
77639;BME280;66802;52.574;14.398;2024-03-02T07:32:42;100793.41;;;9.02;100.00
77639;BME280;66802;52.574;14.398;2024-03-02T07:35:11;100788.28;;;8.99;100.00
77639;BME280;66802;52.574;14.398;2024-03-02T07:37:37;100786.91;;;8.95;100.00
77639;BME280;66802;52.574;14.398;2024-03-02T07:40:03;100798.66;;;8.94;100.00
77639;BME280;66802;52.574;14.398;2024-03-02T07:42:28;100796.81;;;9.04;100.00
77639;BME280;66802;52.574;14.398;2024-03-02T07:44:54;100794.50;;;9.09;100.00
77639;BME280;66802;52.574;14.398;2024-03-02T07:47:20;100800.59;;;9.11;100.00
77639;BME280;66802;52.574;14.398;2024-03-02T07:49:45;100806.84;;;9.02;100.00
77639;BME280;66802;52.574;14.398;2024-03-02T07:52:11;100805.28;;;9.09;100.00
77639;BME280;66802;52.574;14.398;2024-03-02T07:54:37;100813.94;;;9.12;100.00
77639;BME280;66802;52.574;14.398;2024-03-02T07:57:03;100811.69;;;9.08;100.00
77639;BME280;66802;52.574;14.398;2024-03-02T07:59:28;100820.75;;;9.17;100.00
77639;BME280;66802;52.574;14.398;2024-03-02T08:01:54;100820.16;;;9.23;100.00
77639;BME280;66802;52.574;14.398;2024-03-02T08:04:20;100819.31;;;9.22;100.00
77639;BME280;66802;52.574;14.398;2024-03-02T08:06:46;100828.25;;;9.23;100.00
77639;BME280;66802;52.574;14.398;2024-03-02T08:09:12;100822.88;;;9.13;100.00
77639;BME280;66802;52.574;14.398;2024-03-02T08:11:37;100828.13;;;9.14;100.00
77639;BME280;66802;52.574;14.398;2024-03-02T08:14:03;100832.06;;;9.20;100.00
77639;BME280;66802;52.574;14.398;2024-03-02T08:16:29;100827.84;;;9.18;100.00
77639;BME280;66802;52.574;14.398;2024-03-02T08:18:55;100832.91;;;9.30;100.00
77639;BME280;66802;52.574;14.398;2024-03-02T08:21:23;100827.53;;;9.40;100.00
77639;BME280;66802;52.574;14.398;2024-03-02T08:23:48;100824.84;;;9.40;100.00
77639;BME280;66802;52.574;14.398;2024-03-02T08:26:14;100833.34;;;9.35;100.00
77639;BME280;66802;52.574;14.398;2024-03-02T08:28:41;100834.31;;;9.44;100.00
77639;BME280;66802;52.574;14.398;2024-03-02T08:31:07;100838.41;;;9.48;100.00
77639;BME280;66802;52.574;14.398;2024-03-02T08:33:33;100834.88;;;9.47;100.00
77639;BME280;66802;52.574;14.398;2024-03-02T08:35:59;100835.16;;;9.44;100.00
77639;BME280;66802;52.574;14.398;2024-03-02T08:38:25;100844.09;;;9.45;100.00
77639;BME280;66802;52.574;14.398;2024-03-02T08:40:51;100832.47;;;9.44;100.00
77639;BME280;66802;52.574;14.398;2024-03-02T08:43:17;100837.72;;;9.36;100.00
77639;BME280;66802;52.574;14.398;2024-03-02T08:45:43;100837.03;;;9.34;100.00
77639;BME280;66802;52.574;14.398;2024-03-02T08:48:08;100841.97;;;9.48;100.00
77639;BME280;66802;52.574;14.398;2024-03-02T08:50:35;100833.88;;;9.48;100.00
77639;BME280;66802;52.574;14.398;2024-03-02T08:53:01;100839.84;;;9.42;100.00
77639;BME280;66802;52.574;14.398;2024-03-02T08:55:26;100844.69;;;9.39;100.00
77639;BME280;66802;52.574;14.398;2024-03-02T08:57:52;100851.31;;;9.44;100.00
77639;BME280;66802;52.574;14.398;2024-03-02T09:00:18;100848.34;;;9.47;100.00
77639;BME280;66802;52.574;14.398;2024-03-02T09:02:44;100861.53;;;9.50;100.00
77639;BME280;66802;52.574;14.398;2024-03-02T09:05:10;100855.16;;;9.51;100.00
77639;BME280;66802;52.574;14.398;2024-03-02T09:07:35;100855.28;;;9.50;100.00
77639;BME280;66802;52.574;14.398;2024-03-02T09:10:00;100857.69;;;9.53;100.00
77639;BME280;66802;52.574;14.398;2024-03-02T09:12:26;100848.91;;;9.51;100.00
77639;BME280;66802;52.574;14.398;2024-03-02T09:14:52;100852.88;;;9.57;100.00
77639;BME280;66802;52.574;14.398;2024-03-02T09:17:17;100840.09;;;9.59;100.00
77639;BME280;66802;52.574;14.398;2024-03-02T09:19:43;100843.91;;;9.66;100.00
77639;BME280;66802;52.574;14.398;2024-03-02T09:22:08;100848.28;;;9.76;100.00
77639;BME280;66802;52.574;14.398;2024-03-02T09:24:35;100847.00;;;9.80;100.00
77639;BME280;66802;52.574;14.398;2024-03-02T09:27:00;100844.53;;;9.87;100.00
77639;BME280;66802;52.574;14.398;2024-03-02T09:29:26;100845.34;;;9.97;100.00
77639;BME280;66802;52.574;14.398;2024-03-02T09:31:51;100844.31;;;10.08;100.00
77639;BME280;66802;52.574;14.398;2024-03-02T09:34:17;100852.72;;;10.05;100.00
77639;BME280;66802;52.574;14.398;2024-03-02T09:36:43;100855.81;;;10.10;100.00
77639;BME280;66802;52.574;14.398;2024-03-02T09:39:09;100862.06;;;10.10;100.00
77639;BME280;66802;52.574;14.398;2024-03-02T09:41:36;100861.34;;;10.08;100.00
77639;BME280;66802;52.574;14.398;2024-03-02T09:44:02;100867.69;;;10.17;100.00
77639;BME280;66802;52.574;14.398;2024-03-02T09:46:28;100869.44;;;10.18;100.00
77639;BME280;66802;52.574;14.398;2024-03-02T09:48:54;100871.72;;;10.13;100.00
77639;BME280;66802;52.574;14.398;2024-03-02T09:51:20;100875.38;;;10.21;100.00
77639;BME280;66802;52.574;14.398;2024-03-02T09:53:45;100877.94;;;10.23;100.00
77639;BME280;66802;52.574;14.398;2024-03-02T09:56:12;100871.09;;;10.29;100.00
77639;BME280;66802;52.574;14.398;2024-03-02T09:58:38;100878.47;;;10.36;100.00
77639;BME280;66802;52.574;14.398;2024-03-02T10:01:06;100877.78;;;10.52;100.00
77639;BME280;66802;52.574;14.398;2024-03-02T10:03:33;100871.25;;;10.54;100.00
77639;BME280;66802;52.574;14.398;2024-03-02T10:06:18;100877.06;;;10.59;100.00
77639;BME280;66802;52.574;14.398;2024-03-02T10:08:44;100878.44;;;10.64;100.00
77639;BME280;66802;52.574;14.398;2024-03-02T10:11:09;100878.06;;;10.58;100.00
77639;BME280;66802;52.574;14.398;2024-03-02T10:13:34;100880.56;;;10.60;100.00
77639;BME280;66802;52.574;14.398;2024-03-02T10:16:11;100885.69;;;10.63;100.00
77639;BME280;66802;52.574;14.398;2024-03-02T10:18:37;100883.06;;;10.71;100.00
77639;BME280;66802;52.574;14.398;2024-03-02T10:21:15;100888.38;;;10.63;100.00
77639;BME280;66802;52.574;14.398;2024-03-02T10:23:40;100895.34;;;10.66;100.00
77639;BME280;66802;52.574;14.398;2024-03-02T10:26:32;100891.50;;;10.68;100.00
77639;BME280;66802;52.574;14.398;2024-03-02T10:28:57;100895.75;;;10.71;100.00
77639;BME280;66802;52.574;14.398;2024-03-02T10:31:25;100893.88;;;10.71;100.00
77639;BME280;66802;52.574;14.398;2024-03-02T10:33:54;100888.47;;;10.71;100.00
77639;BME280;66802;52.574;14.398;2024-03-02T10:36:20;100893.34;;;10.68;100.00
77639;BME280;66802;52.574;14.398;2024-03-02T10:38:46;100887.72;;;10.79;100.00
77639;BME280;66802;52.574;14.398;2024-03-02T10:41:17;100887.31;;;10.74;100.00
77639;BME280;66802;52.574;14.398;2024-03-02T10:43:43;100883.38;;;10.68;100.00
77639;BME280;66802;52.574;14.398;2024-03-02T10:46:11;100889.50;;;10.70;100.00
77639;BME280;66802;52.574;14.398;2024-03-02T10:48:39;100885.47;;;10.74;100.00
77639;BME280;66802;52.574;14.398;2024-03-02T10:51:06;100878.78;;;10.78;100.00
77639;BME280;66802;52.574;14.398;2024-03-02T10:53:32;100883.06;;;10.71;100.00
77639;BME280;66802;52.574;14.398;2024-03-02T10:55:58;100889.31;;;10.72;99.34
77639;BME280;66802;52.574;14.398;2024-03-02T10:58:32;100883.38;;;10.68;98.75
77639;BME280;66802;52.574;14.398;2024-03-02T11:01:06;100884.38;;;10.67;99.77
77639;BME280;66802;52.574;14.398;2024-03-02T11:03:35;100878.38;;;10.73;99.22
77639;BME280;66802;52.574;14.398;2024-03-02T11:06:08;100882.25;;;10.71;99.40
77639;BME280;66802;52.574;14.398;2024-03-02T11:08:37;100885.31;;;10.76;98.12
77639;BME280;66802;52.574;14.398;2024-03-02T11:11:07;100880.84;;;10.84;96.59
77639;BME280;66802;52.574;14.398;2024-03-02T11:13:35;100878.56;;;10.89;93.46
77639;BME280;66802;52.574;14.398;2024-03-02T11:16:16;100874.75;;;10.82;94.36
77639;BME280;66802;52.574;14.398;2024-03-02T11:18:46;100876.56;;;10.91;93.35
77639;BME280;66802;52.574;14.398;2024-03-02T11:21:12;100869.59;;;10.89;91.49
77639;BME280;66802;52.574;14.398;2024-03-02T11:23:38;100868.53;;;11.00;91.71
77639;BME280;66802;52.574;14.398;2024-03-02T11:26:19;100874.47;;;11.03;92.67
77639;BME280;66802;52.574;14.398;2024-03-02T11:28:45;100877.41;;;11.10;91.26
77639;BME280;66802;52.574;14.398;2024-03-02T11:31:11;100881.09;;;11.09;90.80
77639;BME280;66802;52.574;14.398;2024-03-02T11:33:36;100872.31;;;11.07;92.00
77639;BME280;66802;52.574;14.398;2024-03-02T11:36:02;100870.31;;;11.09;92.02
77639;BME280;66802;52.574;14.398;2024-03-02T11:38:30;100867.72;;;11.25;92.28
77639;BME280;66802;52.574;14.398;2024-03-02T11:40:57;100865.38;;;11.22;92.10
77639;BME280;66802;52.574;14.398;2024-03-02T11:43:27;100858.81;;;11.24;91.95
77639;BME280;66802;52.574;14.398;2024-03-02T11:45:57;100855.31;;;11.32;91.56
77639;BME280;66802;52.574;14.398;2024-03-02T11:48:27;100855.38;;;11.40;92.27
77639;BME280;66802;52.574;14.398;2024-03-02T11:51:04;100859.06;;;11.57;93.21
77639;BME280;66802;52.574;14.398;2024-03-02T11:53:31;100857.88;;;11.59;93.06
77639;BME280;66802;52.574;14.398;2024-03-02T11:55:59;100857.03;;;11.77;92.54
77639;BME280;66802;52.574;14.398;2024-03-02T11:58:35;100859.88;;;11.75;92.54
77639;BME280;66802;52.574;14.398;2024-03-02T12:01:01;100854.69;;;11.82;92.75
77639;BME280;66802;52.574;14.398;2024-03-02T12:03:27;100857.06;;;11.85;92.47
77639;BME280;66802;52.574;14.398;2024-03-02T12:05:54;100855.06;;;11.87;92.97
77639;BME280;66802;52.574;14.398;2024-03-02T12:08:20;100857.13;;;11.93;92.86
77639;BME280;66802;52.574;14.398;2024-03-02T12:10:57;100859.84;;;12.01;91.78
77639;BME280;66802;52.574;14.398;2024-03-02T12:13:23;100862.75;;;11.99;91.44
77639;BME280;66802;52.574;14.398;2024-03-02T12:15:53;100852.09;;;11.98;91.92
77639;BME280;66802;52.574;14.398;2024-03-02T12:18:19;100855.69;;;12.06;92.07
77639;BME280;66802;52.574;14.398;2024-03-02T12:20:44;100850.56;;;12.03;91.14
77639;BME280;66802;52.574;14.398;2024-03-02T12:23:10;100858.56;;;12.13;91.74
77639;BME280;66802;52.574;14.398;2024-03-02T12:25:35;100847.59;;;12.15;90.99
77639;BME280;66802;52.574;14.398;2024-03-02T12:28:01;100847.75;;;12.13;91.17
77639;BME280;66802;52.574;14.398;2024-03-02T12:30:30;100846.44;;;12.17;89.74
77639;BME280;66802;52.574;14.398;2024-03-02T12:32:56;100853.56;;;12.26;89.95
77639;BME280;66802;52.574;14.398;2024-03-02T12:35:21;100853.25;;;12.29;89.63
77639;BME280;66802;52.574;14.398;2024-03-02T12:37:49;100855.97;;;12.29;90.12
77639;BME280;66802;52.574;14.398;2024-03-02T12:40:19;100857.97;;;12.27;89.39
77639;BME280;66802;52.574;14.398;2024-03-02T12:42:46;100857.81;;;12.29;89.61
77639;BME280;66802;52.574;14.398;2024-03-02T12:45:15;100858.63;;;12.21;89.23
77639;BME280;66802;52.574;14.398;2024-03-02T12:47:41;100850.69;;;12.28;89.75
77639;BME280;66802;52.574;14.398;2024-03-02T12:50:08;100858.97;;;12.26;90.28
77639;BME280;66802;52.574;14.398;2024-03-02T12:52:35;100856.31;;;12.34;90.95
77639;BME280;66802;52.574;14.398;2024-03-02T12:55:04;100852.75;;;12.34;90.55
77639;BME280;66802;52.574;14.398;2024-03-02T12:57:31;100853.59;;;12.34;90.63
77639;BME280;66802;52.574;14.398;2024-03-02T12:59:58;100846.72;;;12.48;90.05
77639;BME280;66802;52.574;14.398;2024-03-02T13:02:27;100841.16;;;12.50;90.07
77639;BME280;66802;52.574;14.398;2024-03-02T13:04:53;100843.53;;;12.53;89.73
77639;BME280;66802;52.574;14.398;2024-03-02T13:07:20;100840.28;;;12.49;89.85
77639;BME280;66802;52.574;14.398;2024-03-02T13:09:49;100846.38;;;12.43;89.92
77639;BME280;66802;52.574;14.398;2024-03-02T13:12:15;100848.38;;;12.33;90.17
77639;BME280;66802;52.574;14.398;2024-03-02T13:14:42;100844.28;;;12.29;90.88
77639;BME280;66802;52.574;14.398;2024-03-02T13:17:10;100848.88;;;12.36;90.85
77639;BME280;66802;52.574;14.398;2024-03-02T13:19:35;100847.53;;;12.32;90.93
77639;BME280;66802;52.574;14.398;2024-03-02T13:22:01;100850.69;;;12.28;91.13
77639;BME280;66802;52.574;14.398;2024-03-02T13:24:30;100842.59;;;12.28;91.00
77639;BME280;66802;52.574;14.398;2024-03-02T13:26:55;100843.44;;;12.28;90.98
77639;BME280;66802;52.574;14.398;2024-03-02T13:29:23;100847.47;;;12.24;90.85
77639;BME280;66802;52.574;14.398;2024-03-02T13:31:49;100848.84;;;12.28;90.74
77639;BME280;66802;52.574;14.398;2024-03-02T13:34:15;100841.91;;;12.26;90.28
77639;BME280;66802;52.574;14.398;2024-03-02T13:36:40;100846.47;;;12.25;89.58
77639;BME280;66802;52.574;14.398;2024-03-02T13:39:06;100844.72;;;12.16;89.25
77639;BME280;66802;52.574;14.398;2024-03-02T13:41:34;100845.28;;;12.28;89.50
77639;BME280;66802;52.574;14.398;2024-03-02T13:43:59;100850.00;;;12.26;89.06
77639;BME280;66802;52.574;14.398;2024-03-02T13:46:26;100843.41;;;12.20;89.13
77639;BME280;66802;52.574;14.398;2024-03-02T13:48:52;100850.31;;;12.23;89.58
77639;BME280;66802;52.574;14.398;2024-03-02T13:51:18;100838.19;;;12.27;89.20
77639;BME280;66802;52.574;14.398;2024-03-02T13:53:43;100840.56;;;12.30;88.05
77639;BME280;66802;52.574;14.398;2024-03-02T13:56:09;100840.59;;;12.38;87.79
77639;BME280;66802;52.574;14.398;2024-03-02T13:58:35;100839.91;;;12.36;87.38
77639;BME280;66802;52.574;14.398;2024-03-02T14:01:00;100842.13;;;12.40;87.40
77639;BME280;66802;52.574;14.398;2024-03-02T14:03:26;100845.53;;;12.42;87.16
77639;BME280;66802;52.574;14.398;2024-03-02T14:05:53;100840.13;;;12.42;87.88
77639;BME280;66802;52.574;14.398;2024-03-02T14:08:18;100844.69;;;12.50;86.71
77639;BME280;66802;52.574;14.398;2024-03-02T14:10:44;100843.81;;;12.41;86.55
77639;BME280;66802;52.574;14.398;2024-03-02T14:13:09;100842.16;;;12.49;86.65
77639;BME280;66802;52.574;14.398;2024-03-02T14:15:35;100847.53;;;12.40;86.30
77639;BME280;66802;52.574;14.398;2024-03-02T14:18:04;100843.78;;;12.33;88.43
77639;BME280;66802;52.574;14.398;2024-03-02T14:20:29;100839.22;;;12.34;88.26
77639;BME280;66802;52.574;14.398;2024-03-02T14:22:55;100840.25;;;12.33;87.49
77639;BME280;66802;52.574;14.398;2024-03-02T14:25:20;100835.66;;;12.33;87.80
77639;BME280;66802;52.574;14.398;2024-03-02T14:27:46;100827.03;;;12.30;88.19
77639;BME280;66802;52.574;14.398;2024-03-02T14:30:12;100843.06;;;12.23;88.91
77639;BME280;66802;52.574;14.398;2024-03-02T14:32:38;100841.34;;;12.22;89.02
77639;BME280;66802;52.574;14.398;2024-03-02T14:35:04;100839.03;;;12.27;89.40
77639;BME280;66802;52.574;14.398;2024-03-02T14:37:29;100841.28;;;12.40;87.46
77639;BME280;66802;52.574;14.398;2024-03-02T14:39:55;100838.25;;;12.43;86.99
77639;BME280;66802;52.574;14.398;2024-03-02T14:42:22;100836.03;;;12.38;86.26
77639;BME280;66802;52.574;14.398;2024-03-02T14:44:47;100831.75;;;12.28;86.79
77639;BME280;66802;52.574;14.398;2024-03-02T14:47:13;100824.31;;;12.30;86.75
77639;BME280;66802;52.574;14.398;2024-03-02T14:49:39;100829.91;;;12.28;87.93
77639;BME280;66802;52.574;14.398;2024-03-02T14:52:06;100833.13;;;12.32;87.87
77639;BME280;66802;52.574;14.398;2024-03-02T14:54:32;100832.78;;;12.35;87.52
77639;BME280;66802;52.574;14.398;2024-03-02T14:56:58;100823.72;;;12.52;87.40
77639;BME280;66802;52.574;14.398;2024-03-02T14:59:23;100830.44;;;12.40;87.15
77639;BME280;66802;52.574;14.398;2024-03-02T15:01:49;100832.44;;;12.30;87.82
77639;BME280;66802;52.574;14.398;2024-03-02T15:04:15;100826.22;;;12.37;87.32
77639;BME280;66802;52.574;14.398;2024-03-02T15:06:42;100826.91;;;12.48;86.48
77639;BME280;66802;52.574;14.398;2024-03-02T15:09:07;100825.91;;;12.49;86.63
77639;BME280;66802;52.574;14.398;2024-03-02T15:11:33;100824.91;;;12.50;85.68
77639;BME280;66802;52.574;14.398;2024-03-02T15:13:59;100824.34;;;12.38;86.80
77639;BME280;66802;52.574;14.398;2024-03-02T15:16:24;100816.69;;;12.33;87.04
77639;BME280;66802;52.574;14.398;2024-03-02T15:18:52;100823.31;;;12.31;87.25
77639;BME280;66802;52.574;14.398;2024-03-02T15:21:27;100825.31;;;12.21;88.25
77639;BME280;66802;52.574;14.398;2024-03-02T15:23:52;100819.19;;;12.11;89.05
77639;BME280;66802;52.574;14.398;2024-03-02T15:26:18;100827.78;;;12.06;89.71
77639;BME280;66802;52.574;14.398;2024-03-02T15:28:43;100822.06;;;12.17;89.18
77639;BME280;66802;52.574;14.398;2024-03-02T15:31:09;100831.72;;;12.20;88.94
77639;BME280;66802;52.574;14.398;2024-03-02T15:33:34;100827.44;;;12.09;89.97
77639;BME280;66802;52.574;14.398;2024-03-02T15:36:00;100830.75;;;11.95;91.10
77639;BME280;66802;52.574;14.398;2024-03-02T15:38:26;100829.19;;;11.84;92.12
77639;BME280;66802;52.574;14.398;2024-03-02T15:40:52;100834.44;;;11.86;92.01